Time;durP1;ratioP1;P1;durP2;ratioP2;P2;SDS_P1;SDS_P2;PMS_P1;PMS_P2;Temp;Humidity;BMP_temperature;BMP_pressure;BME280_temperature;BME280_humidity;BME280_pressure;Samples;Min_cycle;Max_cycle;Signal;HPM_P1;HPM_P2
2020/12/12 00:00:18;;;;;;;37.78;20.02;;;3.30;99.90;;;;;;5032918;28;20025;-69
2020/12/12 00:02:43;;;;;;;31.80;17.58;;;3.40;99.90;;;;;;5032795;28;20594;-68
2020/12/12 00:05:09;;;;;;;35.63;19.42;;;3.40;99.90;;;;;;5032986;28;20029;-68
2020/12/12 00:07:35;;;;;;;44.30;21.77;;;3.30;99.90;;;;;;5033102;28;20029;-67
2020/12/12 00:10:00;;;;;;;35.22;20.08;;;3.40;99.90;;;;;;5032801;28;20029;-68
2020/12/12 00:12:26;;;;;;;44.13;22.10;;;3.50;99.90;;;;;;5032812;28;20021;-68
2020/12/12 00:14:52;;;;;;;39.92;20.35;;;3.40;99.90;;;;;;5032412;28;20025;-68
2020/12/12 00:17:20;;;;;;;38.83;21.75;;;3.40;99.90;;;;;;5032818;28;20040;-68
2020/12/12 00:19:47;;;;;;;37.25;20.73;;;3.40;99.90;;;;;;5032779;28;20032;-68
2020/12/12 00:22:12;;;;;;;39.03;20.20;;;3.40;99.90;;;;;;5032855;28;20117;-68
2020/12/12 00:24:38;;;;;;;36.38;19.27;;;3.30;99.90;;;;;;5032411;28;20104;-68
2020/12/12 00:27:04;;;;;;;36.67;21.00;;;3.30;99.90;;;;;;5032854;28;20063;-68
2020/12/12 00:29:29;;;;;;;41.45;23.13;;;3.40;99.90;;;;;;5032708;28;20025;-67
2020/12/12 00:31:56;;;;;;;34.75;19.92;;;3.40;99.90;;;;;;5031840;28;20032;-68
2020/12/12 00:34:26;;;;;;;35.22;20.33;;;3.30;99.90;;;;;;5032332;28;20061;-68
2020/12/12 00:36:53;;;;;;;39.75;21.73;;;3.30;99.90;;;;;;5032739;28;20026;-67
2020/12/12 00:39:20;;;;;;;37.60;21.52;;;3.20;99.90;;;;;;5032687;28;20030;-67
2020/12/12 00:41:46;;;;;;;35.35;20.45;;;3.20;99.90;;;;;;5032469;28;20017;-67
2020/12/12 00:44:15;;;;;;;33.83;19.40;;;3.10;99.90;;;;;;5031742;28;20025;-66
2020/12/12 00:46:41;;;;;;;34.28;19.85;;;3.00;99.90;;;;;;5032421;28;20022;-65
2020/12/12 00:49:08;;;;;;;34.38;19.38;;;2.90;99.90;;;;;;5032275;28;20585;-66
2020/12/12 00:51:34;;;;;;;32.28;19.73;;;2.90;99.90;;;;;;5032115;28;20185;-66
2020/12/12 00:54:00;;;;;;;38.22;22.63;;;2.90;99.90;;;;;;5031788;28;20026;-66
2020/12/12 00:56:26;;;;;;;45.15;24.05;;;2.90;99.90;;;;;;5032616;28;20037;-67
2020/12/12 00:58:52;;;;;;;37.58;21.65;;;2.80;99.90;;;;;;5031260;28;20036;-67
2020/12/12 01:01:18;;;;;;;40.53;22.88;;;2.80;99.90;;;;;;5031913;28;20100;-66
2020/12/12 01:03:45;;;;;;;39.75;22.48;;;2.80;99.90;;;;;;5031544;28;20026;-66
2020/12/12 01:06:12;;;;;;;41.30;22.38;;;2.90;99.90;;;;;;5031680;28;20112;-66
2020/12/12 01:08:39;;;;;;;35.88;21.25;;;2.90;99.90;;;;;;5031814;28;20033;-67
2020/12/12 01:11:08;;;;;;;39.97;22.55;;;3.00;99.90;;;;;;5031784;28;20061;-67
2020/12/12 01:13:35;;;;;;;43.45;24.35;;;3.00;99.90;;;;;;5030629;28;20084;-67
2020/12/12 01:16:11;;;;;;;43.88;23.90;;;3.10;99.90;;;;;;5031740;28;20037;-67
2020/12/12 01:18:37;;;;;;;40.22;22.30;;;3.10;99.90;;;;;;5031230;28;20025;-67
2020/12/12 01:21:04;;;;;;;39.85;22.67;;;3.10;99.90;;;;;;5031553;28;20045;-67
2020/12/12 01:23:33;;;;;;;51.67;24.95;;;3.10;99.90;;;;;;5031286;28;20039;-67
2020/12/12 01:25:59;;;;;;;45.80;23.98;;;3.10;99.90;;;;;;5031478;28;20499;-68
2020/12/12 01:28:25;;;;;;;41.78;22.55;;;3.10;99.90;;;;;;5031441;28;20426;-67
2020/12/12 01:30:53;;;;;;;38.78;21.63;;;3.10;99.90;;;;;;5031492;28;20025;-67
2020/12/12 01:33:22;;;;;;;45.03;24.30;;;3.10;99.90;;;;;;5031277;28;20021;-67
2020/12/12 01:35:48;;;;;;;59.22;28.80;;;3.30;99.90;;;;;;5031365;28;20097;-67
2020/12/12 01:38:14;;;;;;;43.33;24.13;;;3.30;99.90;;;;;;5031305;28;20057;-67
2020/12/12 01:40:40;;;;;;;47.40;24.88;;;3.30;99.90;;;;;;5031407;28;20490;-67
2020/12/12 01:43:08;;;;;;;47.88;24.88;;;3.20;99.90;;;;;;5030879;28;20064;-68
2020/12/12 01:45:34;;;;;;;38.25;22.88;;;3.30;99.90;;;;;;5031254;28;20029;-68
2020/12/12 01:48:01;;;;;;;33.28;19.50;;;3.30;99.90;;;;;;5031498;28;20041;-67
2020/12/12 01:50:27;;;;;;;36.78;19.17;;;3.20;99.90;;;;;;5031227;28;20018;-67
2020/12/12 01:52:55;;;;;;;36.88;20.90;;;3.20;99.90;;;;;;5031197;28;20029;-67
2020/12/12 01:55:21;;;;;;;33.97;20.58;;;3.10;99.90;;;;;;5031482;28;20041;-67
2020/12/12 01:57:51;;;;;;;39.00;23.60;;;3.20;99.90;;;;;;5031430;28;20435;-67
2020/12/12 02:00:18;;;;;;;35.58;22.17;;;3.30;99.90;;;;;;5031742;28;20115;-67
2020/12/12 02:02:49;;;;;;;35.13;20.48;;;3.20;99.90;;;;;;5031103;28;20061;-66
2020/12/12 02:05:39;;;;;;;35.78;20.88;;;3.30;99.90;;;;;;5031161;28;20065;-67
2020/12/12 02:08:17;;;;;;;37.35;22.15;;;3.60;99.90;;;;;;5031419;28;20463;-67
2020/12/12 02:10:48;;;;;;;34.70;19.80;;;3.40;99.90;;;;;;5031109;28;20037;-67
2020/12/12 02:13:15;;;;;;;28.83;17.77;;;3.40;99.90;;;;;;5030948;28;20026;-67
2020/12/12 02:15:41;;;;;;;35.28;17.80;;;3.50;99.90;;;;;;5031477;28;20435;-67
2020/12/12 02:18:18;;;;;;;24.33;16.38;;;3.40;99.90;;;;;;5031162;28;20029;-67
2020/12/12 02:20:59;;;;;;;28.75;18.20;;;3.40;99.90;;;;;;5030926;28;20377;-67
2020/12/12 02:23:25;;;;;;;32.90;19.48;;;3.40;99.90;;;;;;5031074;28;20029;-67
2020/12/12 02:25:51;;;;;;;32.17;19.17;;;3.40;99.90;;;;;;5031161;28;20032;-68
2020/12/12 02:28:21;;;;;;;34.10;17.85;;;3.30;99.90;;;;;;5031137;28;20032;-68
2020/12/12 02:30:47;;;;;;;31.00;18.20;;;3.30;99.90;;;;;;5031046;28;20026;-67
2020/12/12 02:33:13;;;;;;;29.58;17.75;;;3.30;99.90;;;;;;5031118;28;20079;-67
2020/12/12 02:35:38;;;;;;;28.48;16.98;;;3.30;99.90;;;;;;5030921;28;20414;-68
2020/12/12 02:38:04;;;;;;;37.13;21.13;;;3.30;99.90;;;;;;5031019;28;20030;-68
2020/12/12 02:40:30;;;;;;;37.03;21.48;;;3.30;99.90;;;;;;5030820;28;20057;-68
2020/12/12 02:42:55;;;;;;;39.03;22.42;;;3.30;99.90;;;;;;5030732;28;20033;-68
2020/12/12 02:45:21;;;;;;;43.20;23.50;;;3.30;99.90;;;;;;5030850;28;20028;-68
2020/12/12 02:47:47;;;;;;;40.22;22.08;;;3.10;99.90;;;;;;5030943;28;20052;-67
2020/12/12 02:50:14;;;;;;;37.20;20.98;;;3.00;99.90;;;;;;5030596;28;20022;-68
2020/12/12 02:52:42;;;;;;;32.45;19.67;;;2.90;99.90;;;;;;5030753;28;20105;-67
2020/12/12 02:55:10;;;;;;;35.08;20.30;;;3.00;99.90;;;;;;5032093;28;20407;-68
2020/12/12 02:57:37;;;;;;;30.48;19.02;;;3.10;99.90;;;;;;5034394;28;20093;-68
2020/12/12 03:00:11;;;;;;;30.90;18.70;;;3.00;99.90;;;;;;5033924;28;20033;-68
2020/12/12 03:02:36;;;;;;;32.47;18.70;;;3.10;99.90;;;;;;5034199;28;20033;-68
2020/12/12 03:05:04;;;;;;;26.15;17.70;;;3.10;99.90;;;;;;5033998;28;20033;-67
2020/12/12 03:07:30;;;;;;;28.83;18.33;;;3.10;99.90;;;;;;5034131;28;20389;-67
2020/12/12 03:09:56;;;;;;;32.35;18.33;;;3.10;99.90;;;;;;5033923;28;20028;-67
2020/12/12 03:12:21;;;;;;;29.08;18.20;;;3.10;99.90;;;;;;5033784;28;20017;-67
2020/12/12 03:14:47;;;;;;;33.08;18.20;;;3.20;99.90;;;;;;5033909;28;20079;-67
2020/12/12 03:17:13;;;;;;;28.27;17.83;;;3.20;99.90;;;;;;5034076;28;20495;-68
2020/12/12 03:19:38;;;;;;;35.50;21.23;;;3.30;99.90;;;;;;5033096;28;20447;-68
2020/12/12 03:22:05;;;;;;;34.60;20.55;;;3.30;99.90;;;;;;5033914;28;20104;-67
2020/12/12 03:24:31;;;;;;;32.97;21.10;;;3.30;99.90;;;;;;5033173;28;20430;-68
2020/12/12 03:26:57;;;;;;;37.30;20.73;;;3.30;99.90;;;;;;5033815;28;20064;-67
2020/12/12 03:29:23;;;;;;;37.78;21.25;;;3.30;99.90;;;;;;5033752;28;20492;-69
2020/12/12 03:31:48;;;;;;;31.42;19.40;;;3.30;99.90;;;;;;5033957;28;20029;-67
2020/12/12 03:34:14;;;;;;;31.38;19.60;;;3.20;99.90;;;;;;5033605;28;20495;-67
2020/12/12 03:36:39;;;;;;;31.77;20.27;;;3.30;99.90;;;;;;5033770;28;20415;-68
2020/12/12 03:39:05;;;;;;;36.30;20.42;;;3.20;99.90;;;;;;5032412;28;20033;-69
2020/12/12 03:41:31;;;;;;;41.22;22.77;;;3.30;99.90;;;;;;5033636;28;20173;-68
2020/12/12 03:43:56;;;;;;;35.95;20.42;;;3.30;99.90;;;;;;5033256;28;20112;-67
2020/12/12 03:46:22;;;;;;;42.35;22.70;;;3.30;99.90;;;;;;5033645;28;20026;-68
2020/12/12 03:48:48;;;;;;;35.88;20.98;;;3.20;99.90;;;;;;5033654;28;20104;-67
2020/12/12 03:51:13;;;;;;;42.42;22.48;;;3.20;99.90;;;;;;5033511;28;20017;-68
2020/12/12 03:53:39;;;;;;;35.85;21.98;;;3.20;99.90;;;;;;5033171;28;20022;-67
2020/12/12 03:56:04;;;;;;;36.00;21.17;;;3.20;99.90;;;;;;5033521;28;20714;-68
2020/12/12 03:58:30;;;;;;;36.53;21.55;;;3.20;99.90;;;;;;5033355;28;20388;-68
2020/12/12 04:00:56;;;;;;;35.03;20.83;;;3.30;99.90;;;;;;5033170;28;20412;-68
2020/12/12 04:03:22;;;;;;;34.08;20.48;;;3.30;99.90;;;;;;5031581;28;20099;-68
2020/12/12 04:05:47;;;;;;;32.58;20.25;;;3.30;99.90;;;;;;5032423;28;20029;-73
2020/12/12 04:08:14;;;;;;;31.92;19.60;;;3.40;99.90;;;;;;5033024;28;20109;-73
2020/12/12 04:10:39;;;;;;;29.42;18.60;;;3.30;99.90;;;;;;5032746;28;20033;-74
2020/12/12 04:13:05;;;;;;;32.78;19.58;;;3.40;99.90;;;;;;5032507;28;20417;-75
2020/12/12 04:15:31;;;;;;;33.10;19.35;;;3.40;99.90;;;;;;5032900;28;20025;-76
2020/12/12 04:17:57;;;;;;;31.38;18.98;;;3.40;99.90;;;;;;5033010;28;20032;-76
2020/12/12 04:20:22;;;;;;;30.00;18.33;;;3.40;99.90;;;;;;5032486;28;20032;-76
2020/12/12 04:22:48;;;;;;;28.77;18.35;;;3.50;99.90;;;;;;5032020;28;20044;-74
2020/12/12 04:25:14;;;;;;;27.85;17.85;;;3.50;99.90;;;;;;5032778;28;20113;-74
2020/12/12 04:27:40;;;;;;;31.08;19.73;;;3.50;99.90;;;;;;5032926;28;20375;-73
2020/12/12 04:30:05;;;;;;;31.27;18.77;;;3.50;99.90;;;;;;5032729;28;20074;-74
2020/12/12 04:32:31;;;;;;;32.10;19.10;;;3.50;99.90;;;;;;5032631;28;20399;-74
2020/12/12 04:34:57;;;;;;;31.63;19.75;;;3.50;99.90;;;;;;5031971;28;20025;-74
2020/12/12 04:37:22;;;;;;;27.70;18.05;;;3.50;99.90;;;;;;5032840;28;20550;-74
2020/12/12 04:39:48;;;;;;;28.92;17.98;;;3.50;99.90;;;;;;5032633;28;20033;-73
2020/12/12 04:42:16;;;;;;;28.80;18.30;;;3.50;99.90;;;;;;5032555;28;20103;-73
2020/12/12 04:44:43;;;;;;;29.33;18.25;;;3.50;99.90;;;;;;5030654;28;20083;-73
2020/12/12 04:47:10;;;;;;;30.05;18.30;;;3.50;99.90;;;;;;5032613;28;20084;-74
2020/12/12 04:49:35;;;;;;;28.27;18.38;;;3.50;99.90;;;;;;5031836;28;20491;-75
2020/12/12 04:52:05;;;;;;;29.25;18.52;;;3.50;99.90;;;;;;5032363;28;20029;-74
2020/12/12 04:54:35;;;;;;;31.40;18.67;;;3.50;99.90;;;;;;5031688;28;20032;-75
2020/12/12 04:57:06;;;;;;;27.67;17.83;;;3.60;99.90;;;;;;5032276;28;20063;-74
2020/12/12 04:59:34;;;;;;;27.17;17.27;;;3.50;99.90;;;;;;5032044;28;20116;-75
2020/12/12 05:02:03;;;;;;;26.17;17.15;;;3.50;99.90;;;;;;5031805;28;20048;-74
2020/12/12 05:04:29;;;;;;;29.85;17.90;;;3.50;99.90;;;;;;5031089;28;20026;-74
2020/12/12 05:06:55;;;;;;;27.70;16.58;;;3.50;99.90;;;;;;5031836;28;20392;-74
2020/12/12 05:09:21;;;;;;;27.58;16.85;;;3.50;99.90;;;;;;5014241;28;20025;-73
2020/12/12 05:11:48;;;;;;;27.85;17.83;;;3.50;99.90;;;;;;5031330;28;20469;-73
2020/12/12 05:14:16;;;;;;;25.30;17.08;;;3.50;99.90;;;;;;5031277;28;20026;-76
2020/12/12 05:16:45;;;;;;;25.05;17.58;;;3.50;99.90;;;;;;5031765;28;20195;-76
2020/12/12 05:19:13;;;;;;;26.15;16.60;;;3.50;99.90;;;;;;5031390;28;20039;-76
2020/12/12 05:21:49;;;;;;;28.70;17.83;;;3.50;99.90;;;;;;5032030;28;20052;-76
2020/12/12 05:24:15;;;;;;;26.63;17.08;;;3.60;99.90;;;;;;5031397;28;20025;-75
2020/12/12 05:26:45;;;;;;;28.02;17.67;;;3.60;99.90;;;;;;5031046;28;20022;-74
2020/12/12 05:29:15;;;;;;;28.73;17.58;;;3.50;99.90;;;;;;5031486;28;20368;-68
2020/12/12 05:31:41;;;;;;;26.52;18.55;;;3.60;99.90;;;;;;5013782;28;20057;-68
2020/12/12 05:34:14;;;;;;;24.85;17.33;;;3.70;99.90;;;;;;5031376;28;20022;-67
2020/12/12 05:36:41;;;;;;;29.02;19.00;;;3.60;99.90;;;;;;5031615;28;20029;-68
2020/12/12 05:39:13;;;;;;;31.10;20.25;;;3.60;99.90;;;;;;5031538;28;20033;-67
2020/12/12 05:41:40;;;;;;;35.65;21.45;;;3.70;99.90;;;;;;5031240;28;20027;-68
2020/12/12 05:44:06;;;;;;;31.13;19.55;;;3.70;99.90;;;;;;5030958;28;20029;-67
2020/12/12 05:46:32;;;;;;;32.00;20.00;;;3.70;99.90;;;;;;5013752;28;20430;-67
2020/12/12 05:48:58;;;;;;;32.97;19.58;;;3.70;99.90;;;;;;5031406;28;20021;-68
2020/12/12 05:51:28;;;;;;;31.08;19.65;;;3.70;99.90;;;;;;5031342;28;20497;-68
2020/12/12 05:53:58;;;;;;;29.98;19.05;;;3.70;99.90;;;;;;5030680;28;20395;-68
2020/12/12 05:56:24;;;;;;;30.08;18.20;;;3.80;99.90;;;;;;5031458;28;20025;-68
2020/12/12 05:58:51;;;;;;;30.45;19.45;;;3.80;99.90;;;;;;5031207;28;20080;-69
2020/12/12 06:01:18;;;;;;;33.35;20.88;;;3.80;99.90;;;;;;5031300;28;20384;-68
2020/12/12 06:04:06;;;;;;;28.52;19.17;;;3.70;99.90;;;;;;5030722;28;20036;-68
2020/12/12 06:06:32;;;;;;;31.17;18.45;;;3.80;99.90;;;;;;5031046;28;20025;-68
2020/12/12 06:09:09;;;;;;;27.42;17.95;;;3.80;99.90;;;;;;5031210;28;20032;-68
2020/12/12 06:11:39;;;;;;;30.90;19.80;;;3.80;99.90;;;;;;5031113;28;20037;-68
2020/12/12 06:14:05;;;;;;;30.02;19.70;;;3.80;99.90;;;;;;5030735;28;20034;-68
2020/12/12 06:16:32;;;;;;;28.38;17.13;;;3.70;99.90;;;;;;5031018;28;20101;-69
2020/12/12 06:19:12;;;;;;;30.27;17.85;;;3.80;99.90;;;;;;5031080;28;20477;-68
2020/12/12 06:21:43;;;;;;;29.65;18.83;;;3.80;99.90;;;;;;5031079;28;20112;-68
2020/12/12 06:24:11;;;;;;;27.92;18.58;;;3.80;99.90;;;;;;5030637;28;20112;-68
2020/12/12 06:26:49;;;;;;;30.27;18.90;;;3.70;99.90;;;;;;5031026;28;20471;-67
2020/12/12 06:29:17;;;;;;;29.00;18.92;;;3.80;99.90;;;;;;5032377;28;20025;-69
2020/12/12 06:31:43;;;;;;;25.42;17.95;;;3.80;99.90;;;;;;5035139;28;20018;-68
2020/12/12 06:34:09;;;;;;;27.15;17.88;;;3.80;99.90;;;;;;5034430;28;20092;-67
2020/12/12 06:36:36;;;;;;;24.67;16.73;;;3.70;99.90;;;;;;5034889;28;20383;-68
2020/12/12 06:39:22;;;;;;;28.23;17.80;;;3.70;99.90;;;;;;5034735;28;20036;-69
2020/12/12 06:41:53;;;;;;;27.98;18.75;;;3.70;99.90;;;;;;5034491;28;20030;-68
2020/12/12 06:44:41;;;;;;;28.85;17.45;;;3.70;99.90;;;;;;5034330;28;20029;-68
2020/12/12 06:47:08;;;;;;;27.75;17.33;;;3.60;99.90;;;;;;5034686;28;20033;-68
2020/12/12 06:49:35;;;;;;;26.48;17.55;;;3.60;99.90;;;;;;5034444;28;20383;-68
2020/12/12 06:52:01;;;;;;;23.63;16.70;;;3.60;99.90;;;;;;5034400;28;20021;-68
2020/12/12 06:54:27;;;;;;;22.55;15.40;;;3.60;99.90;;;;;;5033846;28;20026;-68
2020/12/12 06:56:53;;;;;;;30.63;20.08;;;3.50;99.90;;;;;;5034236;28;20147;-67
2020/12/12 06:59:35;;;;;;;25.98;17.08;;;3.60;99.90;;;;;;5034414;28;20101;-68
2020/12/12 07:02:01;;;;;;;27.90;18.13;;;3.50;99.90;;;;;;5034398;28;20040;-68
2020/12/12 07:04:37;;;;;;;28.27;17.30;;;3.60;99.90;;;;;;5033110;28;20018;-68
2020/12/12 07:07:09;;;;;;;29.80;17.42;;;3.60;99.90;;;;;;5030529;28;20033;-69
2020/12/12 07:09:36;;;;;;;;;;;3.60;99.90;;;;;;5034284;28;20026;-67
2020/12/12 07:12:03;;;;;;;28.27;16.48;;;3.70;99.90;;;;;;5034032;28;19905;-68
2020/12/12 07:14:29;;;;;;;23.10;15.93;;;3.80;99.90;;;;;;5014562;28;20028;-69
2020/12/12 07:16:59;;;;;;;26.88;15.82;;;3.80;99.90;;;;;;5033386;28;20021;-69
2020/12/12 07:19:36;;;;;;;24.42;16.23;;;3.90;99.90;;;;;;5033877;28;20483;-68
2020/12/12 07:22:08;;;;;;;22.83;15.75;;;3.90;99.90;;;;;;5033996;28;20475;-69
2020/12/12 07:24:34;;;;;;;24.60;16.07;;;4.00;99.90;;;;;;5032515;28;20021;-70
2020/12/12 07:27:01;;;;;;;24.30;15.63;;;4.00;99.90;;;;;;5033740;28;20025;-69
2020/12/12 07:29:28;;;;;;;27.73;17.00;;;4.10;99.90;;;;;;5015668;28;20473;-69
2020/12/12 07:31:55;;;;;;;25.85;16.60;;;4.10;99.90;;;;;;5033641;28;20052;-69
2020/12/12 07:34:22;;;;;;;26.95;18.38;;;4.10;99.90;;;;;;5033011;28;20143;-68
2020/12/12 07:37:00;;;;;;;28.23;18.95;;;4.30;99.90;;;;;;5033377;28;20037;-68
2020/12/12 07:39:30;;;;;;;27.27;17.02;;;4.30;99.90;;;;;;5033469;28;20025;-68
2020/12/12 07:41:57;;;;;;;27.17;17.52;;;4.30;99.90;;;;;;5031540;28;20036;-68
2020/12/12 07:44:24;;;;;;;25.65;16.80;;;4.40;99.90;;;;;;5032766;28;20021;-68
2020/12/12 07:46:54;;;;;;;21.98;15.10;;;4.50;99.90;;;;;;5015650;28;20025;-68
2020/12/12 07:49:20;;;;;;;26.08;17.25;;;4.60;99.90;;;;;;5015173;28;20032;-68
2020/12/12 07:51:45;;;;;;;27.02;17.35;;;4.70;99.90;;;;;;5033265;28;20025;-68
2020/12/12 07:54:22;;;;;;;25.30;17.83;;;4.80;99.90;;;;;;5032715;28;20049;-68
2020/12/12 07:56:49;;;;;;;21.48;16.02;;;4.90;99.90;;;;;;5032882;28;20041;-72
2020/12/12 07:59:22;;;;;;;24.00;17.65;;;4.90;99.90;;;;;;5032699;28;20033;-74
2020/12/12 08:01:48;;;;;;;;;;;5.10;99.90;;;;;;5033288;28;20025;-74
2020/12/12 08:04:27;;;;;;;21.42;15.43;;;5.10;99.90;;;;;;5031422;28;20348;-74
2020/12/12 08:06:52;;;;;;;20.52;14.35;;;5.10;99.90;;;;;;5032692;28;20021;-73
2020/12/12 08:09:23;;;;;;;20.23;14.75;;;5.20;99.90;;;;;;5032816;28;20025;-73
2020/12/12 08:12:00;;;;;;;17.95;13.25;;;5.40;99.90;;;;;;5032905;28;20582;-74
2020/12/12 08:14:29;;;;;;;17.80;13.65;;;5.60;99.90;;;;;;5030989;28;20537;-73
2020/12/12 08:16:57;;;;;;;20.45;14.30;;;5.90;99.90;;;;;;5031639;28;20025;-74
2020/12/12 08:19:23;;;;;;;16.88;12.80;;;6.00;99.90;;;;;;5032738;28;20436;-74
2020/12/12 08:21:51;;;;;;;21.17;13.32;;;6.30;99.90;;;;;;5033071;28;20060;-76
2020/12/12 08:24:18;;;;;;;18.48;13.38;;;6.40;99.90;;;;;;5033401;28;20488;-78
2020/12/12 08:26:44;;;;;;;16.40;11.20;;;6.50;99.90;;;;;;5033138;28;20029;-77
2020/12/12 08:29:10;;;;;;;14.88;12.02;;;6.50;99.90;;;;;;5032907;28;20026;-76
2020/12/12 08:31:38;;;;;;;15.88;12.38;;;6.60;99.90;;;;;;5040509;28;20013;-78
2020/12/12 08:34:05;;;;;;;23.00;14.00;;;6.70;99.90;;;;;;5047068;28;20025;-80
2020/12/12 08:36:31;;;;;;;16.38;12.50;;;6.70;99.90;;;;;;5035452;28;20021;-77
2020/12/12 08:39:00;;;;;;;17.23;12.32;;;6.60;99.90;;;;;;5032428;28;20048;-66
2020/12/12 08:41:36;;;;;;;16.10;12.52;;;6.60;99.90;;;;;;5032673;28;20474;-66
2020/12/12 08:44:03;;;;;;;18.73;12.88;;;6.60;99.90;;;;;;4994059;28;20038;-66
2020/12/12 08:46:29;;;;;;;14.90;11.13;;;6.50;99.90;;;;;;5012294;28;20026;-72
2020/12/12 08:48:55;;;;;;;18.92;12.77;;;6.50;99.90;;;;;;5013402;28;20070;-74
2020/12/12 08:51:31;;;;;;;16.38;12.73;;;6.60;99.90;;;;;;5015121;28;20018;-67
2020/12/12 08:53:57;;;;;;;14.57;11.35;;;6.60;99.90;;;;;;5018411;28;20029;-68
2020/12/12 08:56:26;;;;;;;14.13;11.38;;;6.40;99.90;;;;;;5036158;28;20025;-68
2020/12/12 08:58:57;;;;;;;13.60;10.68;;;6.20;99.90;;;;;;5042527;28;20030;-66
2020/12/12 09:01:36;;;;;;;18.98;11.82;;;6.20;99.90;;;;;;5038665;28;20071;-68
2020/12/12 09:04:03;;;;;;;15.05;10.65;;;6.20;99.90;;;;;;5037318;28;20056;-68
2020/12/12 09:06:35;;;;;;;16.58;11.43;;;6.20;99.90;;;;;;5042727;28;20039;-69
2020/12/12 09:09:11;;;;;;;18.02;12.18;;;6.20;99.90;;;;;;5023416;28;20101;-68
2020/12/12 09:11:42;;;;;;;16.88;11.52;;;6.30;99.90;;;;;;5039433;28;20033;-68
2020/12/12 09:14:09;;;;;;;16.00;12.27;;;6.40;99.90;;;;;;5034956;28;20024;-68
2020/12/12 09:16:35;;;;;;;14.15;11.20;;;6.60;99.90;;;;;;5031812;28;20043;-68
2020/12/12 09:19:02;;;;;;;17.83;13.18;;;6.60;99.90;;;;;;5031102;28;20447;-69
2020/12/12 09:21:35;;;;;;;18.55;12.40;;;6.70;99.90;;;;;;5031963;28;20021;-67
2020/12/12 09:24:02;;;;;;;15.25;11.63;;;6.80;99.90;;;;;;5032732;28;20112;-67
2020/12/12 09:26:28;;;;;;;13.55;10.38;;;6.80;99.90;;;;;;5032998;28;20036;-68
2020/12/12 09:28:53;;;;;;;13.50;10.55;;;6.80;99.90;;;;;;5031890;28;20522;-69
2020/12/12 09:31:22;;;;;;;14.40;12.25;;;6.80;99.90;;;;;;5014136;28;20033;-69
2020/12/12 09:33:47;;;;;;;14.90;10.98;;;6.80;99.90;;;;;;5030840;28;20018;-68
2020/12/12 09:36:13;;;;;;;18.95;12.30;;;6.70;99.90;;;;;;5031954;28;20026;-70
2020/12/12 09:38:39;;;;;;;14.13;11.70;;;6.70;99.90;;;;;;5032121;28;20470;-69
2020/12/12 09:41:05;;;;;;;14.05;11.20;;;6.70;99.90;;;;;;5031629;28;20572;-68
2020/12/12 09:43:31;;;;;;;15.27;11.48;;;6.80;99.90;;;;;;5013309;28;20025;-69
2020/12/12 09:45:57;;;;;;;10.80;8.65;;;6.90;99.90;;;;;;5031917;28;20116;-69
2020/12/12 09:48:22;;;;;;;9.40;8.00;;;6.90;99.90;;;;;;5031688;28;20037;-68
2020/12/12 09:50:48;;;;;;;10.80;8.02;;;6.90;99.90;;;;;;5031560;28;20087;-68
2020/12/12 09:53:14;;;;;;;11.07;7.63;;;6.80;99.90;;;;;;5030934;28;20413;-68
2020/12/12 09:55:41;;;;;;;6.97;5.85;;;6.80;99.90;;;;;;5031165;28;20033;-67
2020/12/12 09:58:07;;;;;;;4.47;4.07;;;6.90;99.90;;;;;;5031525;28;20395;-69
2020/12/12 10:00:35;;;;;;;4.75;3.80;;;6.90;99.90;;;;;;5031444;28;20022;-69
2020/12/12 10:03:02;;;;;;;3.88;3.20;;;6.90;99.90;;;;;;5031415;28;20033;-68
2020/12/12 10:05:28;;;;;;;5.32;3.53;;;7.00;99.90;;;;;;5016036;28;20128;-68
2020/12/12 10:07:57;;;;;;;4.65;3.13;;;7.20;99.90;;;;;;5035297;28;20099;-68
2020/12/12 10:10:24;;;;;;;4.35;3.33;;;7.30;99.90;;;;;;5035050;28;20025;-67
2020/12/12 10:12:50;;;;;;;3.58;3.25;;;7.40;99.90;;;;;;5034251;28;20025;-69
2020/12/12 10:15:20;;;;;;;3.80;3.40;;;7.50;99.90;;;;;;5034181;28;20017;-69
2020/12/12 10:17:47;;;;;;;4.50;3.83;;;7.70;99.90;;;;;;5034511;28;20466;-67
2020/12/12 10:20:13;;;;;;;4.93;3.05;;;7.70;99.90;;;;;;5034467;28;20542;-67
2020/12/12 10:22:42;;;;;;;3.65;3.15;;;7.70;99.90;;;;;;5034029;28;20037;-68
2020/12/12 10:25:08;;;;;;;4.43;3.50;;;7.70;99.90;;;;;;5016586;28;20037;-67
2020/12/12 10:27:35;;;;;;;8.45;5.93;;;7.60;99.90;;;;;;5034420;28;20502;-66
2020/12/12 10:30:00;;;;;;;6.93;4.38;;;7.60;99.90;;;;;;5034601;28;20025;-69
2020/12/12 10:32:26;;;;;;;4.75;4.13;;;7.40;99.90;;;;;;5034438;28;20018;-67
2020/12/12 10:34:52;;;;;;;6.68;5.22;;;7.40;99.90;;;;;;5033655;28;20048;-67
2020/12/12 10:37:17;;;;;;;6.88;5.78;;;7.30;99.90;;;;;;5034454;28;20025;-68
2020/12/12 10:39:52;;;;;;;6.97;5.70;;;7.30;99.90;;;;;;5034252;28;20025;-68
2020/12/12 10:42:18;;;;;;;7.65;5.75;;;7.20;99.90;;;;;;5034397;28;20526;-68
2020/12/12 10:44:43;;;;;;;8.85;6.32;;;7.10;99.90;;;;;;5033563;28;20053;-68
2020/12/12 10:47:09;;;;;;;8.80;5.15;;;7.10;99.90;;;;;;5034142;28;20071;-68
2020/12/12 10:49:35;;;;;;;8.55;6.32;;;7.10;99.90;;;;;;5034306;28;20048;-66
2020/12/12 10:52:02;;;;;;;7.72;6.05;;;7.10;99.90;;;;;;5016232;28;20033;-66
2020/12/12 10:54:28;;;;;;;9.95;5.55;;;7.20;99.90;;;;;;5033585;28;20372;-64
2020/12/12 10:56:54;;;;;;;8.25;5.85;;;6.90;99.90;;;;;;5033870;28;20026;-64
2020/12/12 10:59:20;;;;;;;6.53;5.18;;;7.00;99.90;;;;;;5033770;28;20029;-65
2020/12/12 11:01:50;;;;;;;7.82;5.30;;;7.10;99.90;;;;;;5033913;28;20035;-66
2020/12/12 11:04:16;;;;;;;7.72;5.72;;;7.10;99.90;;;;;;5033126;28;20037;-65
2020/12/12 11:06:41;;;;;;;10.68;7.18;;;7.10;99.90;;;;;;5033443;28;20101;-65
2020/12/12 11:09:07;;;;;;;11.57;6.82;;;7.30;99.90;;;;;;5033928;28;20622;-71
2020/12/12 11:11:36;;;;;;;12.18;6.97;;;7.40;99.90;;;;;;5034104;28;20079;-71
2020/12/12 11:14:02;;;;;;;6.57;5.97;;;7.80;99.90;;;;;;5032934;28;20026;-71
2020/12/12 11:16:28;;;;;;;7.78;5.63;;;7.80;99.90;;;;;;5016333;28;20025;-71
2020/12/12 11:18:54;;;;;;;6.53;5.30;;;7.70;99.90;;;;;;5013797;28;20029;-71
2020/12/12 11:21:23;;;;;;;7.07;4.97;;;7.60;99.90;;;;;;5013847;28;20026;-71
2020/12/12 11:23:48;;;;;;;6.78;5.43;;;7.60;99.90;;;;;;5013536;28;20380;-71
2020/12/12 11:26:15;;;;;;;6.50;5.28;;;7.60;99.90;;;;;;5014148;28;20032;-71
2020/12/12 11:28:43;;;;;;;7.68;5.90;;;7.60;99.90;;;;;;5013768;28;20026;-71
2020/12/12 11:31:09;;;;;;;6.60;5.68;;;7.70;99.90;;;;;;5014029;28;20018;-66
2020/12/12 11:33:36;;;;;;;6.63;5.70;;;7.70;99.90;;;;;;5019290;28;20032;-66
2020/12/12 11:46:31;;;;;;;5.95;4.97;;;7.80;99.90;;;;;;5033140;28;20022;-66
2020/12/12 11:48:50;;;;;;;7.47;5.30;;;7.80;99.90;;;;;;5029011;28;20030;-66
2020/12/12 11:51:16;;;;;;;6.90;5.43;;;7.80;99.90;;;;;;5032886;28;20486;-66
2020/12/12 11:53:41;;;;;;;6.80;5.70;;;7.80;99.90;;;;;;5032332;28;20075;-66
2020/12/12 11:56:07;;;;;;;7.00;4.80;;;7.90;99.90;;;;;;5015273;28;20511;-66
2020/12/12 11:58:33;;;;;;;10.40;5.32;;;7.80;99.90;;;;;;5032117;28;20052;-66
2020/12/12 12:00:59;;;;;;;7.72;5.70;;;7.80;99.90;;;;;;5032954;28;20095;-66
2020/12/12 12:03:25;;;;;;;7.90;5.90;;;7.70;99.90;;;;;;5032582;28;20025;-66
2020/12/12 12:05:52;;;;;;;7.10;6.10;;;7.80;99.90;;;;;;5033010;28;20032;-65
2020/12/12 12:08:26;;;;;;;7.95;6.30;;;7.80;99.90;;;;;;5032533;28;20052;-65
2020/12/12 12:13:36;;;;;;;7.57;6.10;;;7.70;99.90;;;;;;5031674;28;20029;-65
2020/12/12 12:16:03;;;;;;;8.57;6.40;;;7.80;99.90;;;;;;5032642;28;20022;-65
2020/12/12 12:18:29;;;;;;;7.68;5.45;;;7.60;99.90;;;;;;5031314;28;20116;-67
2020/12/12 12:20:59;;;;;;;6.25;5.65;;;7.70;99.90;;;;;;5032768;28;20068;-67
2020/12/12 12:23:26;;;;;;;6.30;5.70;;;7.80;99.90;;;;;;5032086;28;20033;-66
2020/12/12 12:25:52;;;;;;;7.55;6.18;;;7.80;99.90;;;;;;5032618;28;20216;-66
2020/12/12 12:28:18;;;;;;;8.27;6.43;;;7.70;99.90;;;;;;5032458;28;20031;-67
2020/12/12 12:30:44;;;;;;;7.20;5.68;;;7.80;99.90;;;;;;5032846;28;20028;-66
2020/12/12 12:33:10;;;;;;;7.65;6.85;;;7.80;99.90;;;;;;5031721;28;20160;-66
2020/12/12 12:35:36;;;;;;;8.05;5.50;;;7.70;99.90;;;;;;5032495;28;20096;-66
2020/12/12 12:38:02;;;;;;;10.80;7.40;;;7.80;99.90;;;;;;5032617;28;20040;-66
2020/12/12 12:40:28;;;;;;;14.77;9.60;;;7.80;99.90;;;;;;5032254;28;20025;-66
2020/12/12 12:42:53;;;;;;;14.15;8.45;;;7.80;99.90;;;;;;5031983;28;20032;-66
2020/12/12 12:45:19;;;;;;;8.13;6.10;;;7.90;99.90;;;;;;5032144;28;20132;-67
2020/12/12 12:47:44;;;;;;;7.10;5.75;;;7.90;99.90;;;;;;5032281;28;20021;-67
2020/12/12 12:50:13;;;;;;;6.85;4.57;;;7.90;99.90;;;;;;5032076;28;20026;-66
2020/12/12 12:52:39;;;;;;;6.22;4.85;;;7.90;99.90;;;;;;5030588;28;20063;-70
2020/12/12 12:55:06;;;;;;;5.57;4.80;;;7.80;99.90;;;;;;5032038;28;20443;-70
2020/12/12 12:57:32;;;;;;;7.38;5.53;;;7.80;99.90;;;;;;5031944;28;20124;-69